createdAt,value
2018-11-13T00:00:53.882Z,17.07
2018-11-13T00:03:22.405Z,17.80
2018-11-13T00:05:50.981Z,17.17
2018-11-13T00:08:19.531Z,17.20
2018-11-13T00:10:48.240Z,17.67
2018-11-13T00:13:16.765Z,17.27
2018-11-13T00:15:45.449Z,18.23
2018-11-13T00:18:14.086Z,17.70
2018-11-13T00:20:42.912Z,18.27
2018-11-13T00:23:11.584Z,18.80
2018-11-13T00:25:40.229Z,20.23
2018-11-13T00:28:09.726Z,20.60
2018-11-13T00:30:38.317Z,20.50
2018-11-13T00:33:06.935Z,20.77
2018-11-13T00:35:35.534Z,20.73
2018-11-13T00:38:04.092Z,20.10
2018-11-13T00:40:32.757Z,21.00
2018-11-13T00:43:01.283Z,20.60
2018-11-13T00:45:29.882Z,20.40
2018-11-13T00:47:58.476Z,20.37
2018-11-13T00:50:27.027Z,22.27
2018-11-13T00:52:55.600Z,21.93
2018-11-13T00:55:24.151Z,22.47
2018-11-13T00:57:52.749Z,23.63
2018-11-13T01:00:21.653Z,23.47
2018-11-13T01:02:50.221Z,23.53
2018-11-13T01:05:20.107Z,22.93
2018-11-13T01:07:49.836Z,24.57
2018-11-13T01:10:18.974Z,24.17
2018-11-13T01:12:48.269Z,25.23
2018-11-13T01:15:18.047Z,24.27
2018-11-13T01:17:47.273Z,24.50
2018-11-13T01:20:16.554Z,24.37
2018-11-13T01:22:45.097Z,25.47
2018-11-13T01:25:14.776Z,25.43
2018-11-13T01:27:43.978Z,26.87
2018-11-13T01:30:13.312Z,25.80
2018-11-13T01:32:42.601Z,26.67
2018-11-13T01:35:12.414Z,27.00
2018-11-13T01:37:41.208Z,26.23
2018-11-13T01:40:11.935Z,27.03
2018-11-13T01:42:41.209Z,27.97
2018-11-13T01:45:11.185Z,28.17
2018-11-13T01:47:39.795Z,28.67
2018-11-13T01:50:08.923Z,29.50
2018-11-13T01:52:37.614Z,27.77
2018-11-13T01:55:07.986Z,28.60
2018-11-13T01:57:36.822Z,27.83
2018-11-13T02:00:14.358Z,28.93
2018-11-13T02:02:43.218Z,30.23
2018-11-13T02:05:11.811Z,30.07
2018-11-13T02:07:40.352Z,29.57
2018-11-13T02:10:09.108Z,29.77
2018-11-13T02:12:37.721Z,30.93
2018-11-13T02:15:07.105Z,29.53
2018-11-13T02:17:35.644Z,31.00
2018-11-13T02:20:05.502Z,29.97
2018-11-13T02:22:34.028Z,30.93
2018-11-13T02:25:02.713Z,29.63
2018-11-13T02:27:31.300Z,29.07
2018-11-13T02:29:59.853Z,29.03
2018-11-13T02:32:29.246Z,30.03
2018-11-13T02:34:57.751Z,30.07
2018-11-13T02:37:26.203Z,30.23
2018-11-13T02:39:54.730Z,30.20
2018-11-13T02:42:23.201Z,30.30
2018-11-13T02:44:51.834Z,30.30
2018-11-13T02:47:20.317Z,28.83
2018-11-13T02:49:48.773Z,29.57
2018-11-13T02:52:17.236Z,30.03
2018-11-13T02:54:45.723Z,29.07
2018-11-13T02:57:14.209Z,29.50
2018-11-13T02:59:42.728Z,28.93
2018-11-13T03:02:11.221Z,28.80
2018-11-13T03:04:39.816Z,27.50
2018-11-13T03:07:08.325Z,28.80
2018-11-13T03:09:36.792Z,28.67
2018-11-13T03:12:05.405Z,30.27
2018-11-13T03:14:34.068Z,28.20
2018-11-13T03:17:02.558Z,28.53
2018-11-13T03:19:31.073Z,28.27
2018-11-13T03:21:59.563Z,28.93
2018-11-13T03:24:28.081Z,28.90
2018-11-13T03:26:56.535Z,29.40
2018-11-13T03:29:25.029Z,28.33
2018-11-13T03:31:53.485Z,28.17
2018-11-13T03:34:21.976Z,28.43
2018-11-13T03:36:50.414Z,28.47
2018-11-13T03:39:18.873Z,27.20
2018-11-13T03:41:47.332Z,27.90
2018-11-13T03:44:15.820Z,29.47
2018-11-13T03:46:44.331Z,28.43
2018-11-13T03:49:12.876Z,27.00
2018-11-13T03:51:41.376Z,28.43
2018-11-13T03:54:09.890Z,28.83
2018-11-13T03:56:38.392Z,30.37
2018-11-13T03:59:06.942Z,27.10
2018-11-13T04:01:35.426Z,28.77
2018-11-13T04:04:09.237Z,26.77
2018-11-13T04:06:37.748Z,28.47
2018-11-13T04:09:08.219Z,27.63
2018-11-13T04:11:36.765Z,28.10
2018-11-13T04:14:05.423Z,26.13
2018-11-13T04:16:34.043Z,27.83
2018-11-13T04:19:02.531Z,26.93
2018-11-13T04:21:31.052Z,27.60
2018-11-13T04:23:59.522Z,26.20
2018-11-13T04:26:28.028Z,26.20
2018-11-13T04:28:56.860Z,25.97
2018-11-13T04:31:25.337Z,26.60
2018-11-13T04:33:53.827Z,26.73
2018-11-13T04:36:22.325Z,24.70
2018-11-13T04:38:51.008Z,24.87
2018-11-13T04:41:19.507Z,25.23
2018-11-13T04:43:48.012Z,24.87
2018-11-13T04:46:16.565Z,25.37
2018-11-13T04:48:45.066Z,25.20
2018-11-13T04:51:13.608Z,24.60
2018-11-13T04:53:42.097Z,24.03
2018-11-13T04:56:10.641Z,23.83
2018-11-13T04:58:39.151Z,23.90
2018-11-13T05:01:07.680Z,24.07
2018-11-13T05:03:36.190Z,22.63
2018-11-13T05:06:05.188Z,23.80
2018-11-13T05:08:33.693Z,22.37
2018-11-13T05:11:02.230Z,25.40
2018-11-13T05:13:30.717Z,23.03
2018-11-13T05:15:59.363Z,22.83
2018-11-13T05:18:27.885Z,23.07
2018-11-13T05:20:56.596Z,22.27
2018-11-13T05:23:25.514Z,23.70
2018-11-13T05:25:54.081Z,23.00
2018-11-13T05:28:22.630Z,22.60
2018-11-13T05:30:51.152Z,22.27
2018-11-13T05:33:20.043Z,23.27
2018-11-13T05:35:48.626Z,23.60
2018-11-13T05:38:17.159Z,23.23
2018-11-13T05:40:45.685Z,22.40
2018-11-13T05:43:14.275Z,23.53
2018-11-13T05:45:42.814Z,21.93
2018-11-13T05:48:11.347Z,22.90
2018-11-13T05:50:39.892Z,22.87
2018-11-13T05:53:08.441Z,22.93
2018-11-13T05:55:37.019Z,23.53
2018-11-13T05:58:05.778Z,22.80
2018-11-13T06:00:34.923Z,22.13
2018-11-13T06:03:04.199Z,23.97
2018-11-13T06:05:33.141Z,22.43
2018-11-13T06:08:01.681Z,22.17
2018-11-13T06:10:30.262Z,22.60
2018-11-13T06:12:58.809Z,22.20
2018-11-13T06:15:27.384Z,22.57
2018-11-13T06:17:55.939Z,27.00
2018-11-13T06:20:24.548Z,23.40
2018-11-13T06:22:53.098Z,22.20
2018-11-13T06:25:21.618Z,22.60
2018-11-13T06:27:50.315Z,21.53
2018-11-13T06:30:23.945Z,21.73
2018-11-13T06:32:52.697Z,22.80
2018-11-13T06:35:21.242Z,21.57
2018-11-13T06:37:49.787Z,20.27
2018-11-13T06:40:18.410Z,21.30
2018-11-13T06:42:46.964Z,20.83
2018-11-13T06:45:17.016Z,19.80
2018-11-13T06:47:46.286Z,20.97
2018-11-13T06:50:14.814Z,21.47
2018-11-13T06:52:44.300Z,20.83
2018-11-13T06:55:17.241Z,20.10
2018-11-13T06:57:45.780Z,21.20
2018-11-13T07:00:14.350Z,21.87
2018-11-13T07:02:42.864Z,21.33
2018-11-13T07:05:14.157Z,20.53
2018-11-13T07:07:43.096Z,19.53
2018-11-13T07:10:13.195Z,21.10
2018-11-13T07:12:43.125Z,20.60
2018-11-13T07:15:13.465Z,21.20
2018-11-13T07:17:43.134Z,21.17
2018-11-13T07:20:11.683Z,21.00
2018-11-13T07:22:40.217Z,20.53
2018-11-13T07:25:08.825Z,20.97
2018-11-13T07:27:37.391Z,21.70
2018-11-13T07:30:07.773Z,22.20
2018-11-13T07:32:36.313Z,21.87
2018-11-13T07:35:05.943Z,20.20
2018-11-13T07:37:34.436Z,19.43
2018-11-13T07:40:02.980Z,20.60
2018-11-13T07:42:31.455Z,20.70
2018-11-13T07:44:59.913Z,18.53
2018-11-13T07:47:28.552Z,17.33
2018-11-13T07:49:56.902Z,17.37
2018-11-13T07:52:25.477Z,17.40
2018-11-13T07:54:53.963Z,15.70
2018-11-13T07:57:22.451Z,15.67
2018-11-13T07:59:50.951Z,15.63
2018-11-13T08:02:19.525Z,15.67
2018-11-13T08:04:48.024Z,16.00
2018-11-13T08:07:16.602Z,17.33
2018-11-13T08:09:45.084Z,16.03
2018-11-13T08:12:13.567Z,15.23
2018-11-13T08:14:42.092Z,14.40
2018-11-13T08:17:10.610Z,14.10
2018-11-13T08:19:39.094Z,15.50
2018-11-13T08:22:07.641Z,14.73
2018-11-13T08:24:36.102Z,14.50
2018-11-13T08:27:04.578Z,14.23
2018-11-13T08:29:33.190Z,13.70
2018-11-13T08:32:01.669Z,13.33
2018-11-13T08:34:30.184Z,13.37
2018-11-13T08:36:58.631Z,13.07
2018-11-13T08:39:27.122Z,12.63
2018-11-13T08:41:55.609Z,12.57
2018-11-13T08:44:24.103Z,12.80
2018-11-13T08:46:52.588Z,13.27
2018-11-13T08:49:21.114Z,13.97
2018-11-13T08:51:49.649Z,13.87
2018-11-13T08:54:18.157Z,13.73
2018-11-13T08:56:46.640Z,14.67
2018-11-13T08:59:15.211Z,15.30
2018-11-13T09:01:43.659Z,13.13
2018-11-13T09:04:12.161Z,13.83
2018-11-13T09:06:40.705Z,13.20
2018-11-13T09:09:11.162Z,14.87
2018-11-13T09:11:39.723Z,16.20
2018-11-13T09:14:08.221Z,14.43
2018-11-13T09:16:36.814Z,15.10
2018-11-13T09:19:05.520Z,15.80
2018-11-13T09:21:33.880Z,16.17
2018-11-13T09:24:02.483Z,15.83
2018-11-13T09:26:31.066Z,16.10
2018-11-13T09:28:59.567Z,18.85
2018-11-13T09:31:28.262Z,17.13
2018-11-13T09:33:56.689Z,17.23
2018-11-13T09:36:25.226Z,18.67
2018-11-13T09:38:53.739Z,17.30
2018-11-13T09:41:22.278Z,16.57
2018-11-13T09:43:50.783Z,17.77
2018-11-13T09:46:19.369Z,17.43
2018-11-13T09:48:48.064Z,18.25
2018-11-13T09:51:16.946Z,18.00
2018-11-13T09:53:45.759Z,20.20
2018-11-13T09:56:27.128Z,19.60
2018-11-13T09:58:58.582Z,18.70
2018-11-13T10:04:22.864Z,19.40
2018-11-13T10:06:57.111Z,19.50
2018-11-13T10:12:05.132Z,18.47
2018-11-13T10:14:34.000Z,19.73
2018-11-13T10:17:02.563Z,19.27
2018-11-13T10:19:31.116Z,19.27
2018-11-13T10:21:59.634Z,19.67
2018-11-13T10:24:28.153Z,20.53
2018-11-13T10:26:56.660Z,21.13
2018-11-13T10:29:25.190Z,19.33
2018-11-13T10:31:53.702Z,21.37
2018-11-13T10:34:22.256Z,20.30
2018-11-13T10:36:50.762Z,20.33
2018-11-13T10:39:19.324Z,21.00
2018-11-13T10:41:47.835Z,20.27
2018-11-13T10:44:16.368Z,21.03
2018-11-13T10:46:44.947Z,20.67
2018-11-13T10:49:13.551Z,19.77
2018-11-13T10:51:42.301Z,19.33
2018-11-13T10:54:10.838Z,19.97
2018-11-13T10:56:39.737Z,20.27
2018-11-13T10:59:08.211Z,18.90
2018-11-13T11:01:41.998Z,19.37
2018-11-13T11:04:15.924Z,18.77
2018-11-13T11:06:44.395Z,18.33
2018-11-13T11:09:12.927Z,18.17
2018-11-13T11:11:41.441Z,17.83
2018-11-13T11:14:09.985Z,16.63
2018-11-13T11:16:38.601Z,18.03
2018-11-13T11:19:07.186Z,16.13
2018-11-13T11:21:36.076Z,16.57
2018-11-13T11:24:05.137Z,13.90
2018-11-13T11:26:33.705Z,15.40
2018-11-13T11:29:02.161Z,14.93
2018-11-13T11:31:30.683Z,13.23
2018-11-13T11:33:59.276Z,12.77
2018-11-13T11:36:27.968Z,10.50
2018-11-13T11:38:57.438Z,11.47
2018-11-13T11:41:25.834Z,11.20
2018-11-13T11:43:54.385Z,10.27
2018-11-13T11:46:22.919Z,10.60
2018-11-13T11:48:51.430Z,11.20
2018-11-13T11:51:19.932Z,10.03
2018-11-13T11:53:48.502Z,10.87
2018-11-13T11:56:16.996Z,10.23
2018-11-13T11:58:45.538Z,10.33
2018-11-13T12:01:14.058Z,10.07
2018-11-13T12:03:42.615Z,9.73
2018-11-13T12:06:11.175Z,9.07
2018-11-13T12:08:39.702Z,9.40
2018-11-13T12:11:08.270Z,8.50
2018-11-13T12:13:36.759Z,8.60
2018-11-13T12:16:05.479Z,7.87
2018-11-13T12:18:33.996Z,7.93
2018-11-13T12:21:02.608Z,7.63
2018-11-13T12:23:31.144Z,7.37
2018-11-13T12:25:59.769Z,7.47
2018-11-13T12:28:28.186Z,6.83
2018-11-13T12:30:57.005Z,6.50
2018-11-13T12:33:25.815Z,7.47
2018-11-13T12:35:54.315Z,6.60
2018-11-13T12:38:22.890Z,7.03
2018-11-13T12:40:51.508Z,6.40
2018-11-13T12:43:19.945Z,6.17
2018-11-13T12:45:48.420Z,6.00
2018-11-13T12:48:16.973Z,5.90
2018-11-13T12:50:50.795Z,6.20
2018-11-13T12:53:19.356Z,6.10
2018-11-13T12:55:47.927Z,6.77
2018-11-13T12:58:16.448Z,7.10
2018-11-13T13:00:44.978Z,6.57
2018-11-13T13:03:13.496Z,6.83
2018-11-13T13:05:42.033Z,7.17
2018-11-13T13:08:10.519Z,7.00
2018-11-13T13:10:39.082Z,7.37
2018-11-13T13:13:07.595Z,8.00
2018-11-13T13:15:36.236Z,7.77
2018-11-13T13:18:04.766Z,7.90
2018-11-13T13:20:33.328Z,8.67
2018-11-13T13:23:02.590Z,8.10
2018-11-13T13:25:31.144Z,7.67
2018-11-13T13:27:59.703Z,8.07
2018-11-13T13:30:28.255Z,8.55
2018-11-13T13:32:56.802Z,9.18
2018-11-13T13:35:59.087Z,7.57
2018-11-13T13:38:27.631Z,7.73
2018-11-13T13:40:57.355Z,7.43
2018-11-13T13:43:26.690Z,7.27
2018-11-13T13:45:55.224Z,7.00
2018-11-13T13:48:23.972Z,7.43
2018-11-13T13:50:52.519Z,7.10
2018-11-13T13:53:21.733Z,7.03
2018-11-13T13:55:50.457Z,7.10
2018-11-13T13:58:19.735Z,7.43
2018-11-13T14:00:48.452Z,7.73
2018-11-13T14:03:16.984Z,7.60
2018-11-13T14:05:45.982Z,7.00
2018-11-13T14:08:15.182Z,7.40
2018-11-13T14:10:43.711Z,7.33
2018-11-13T14:13:12.485Z,7.27
2018-11-13T14:15:41.342Z,7.10
2018-11-13T14:18:10.142Z,7.40
2018-11-13T14:20:38.739Z,6.93
2018-11-13T14:23:07.299Z,7.23
2018-11-13T14:25:35.832Z,6.50
2018-11-13T14:28:04.372Z,7.00
2018-11-13T14:30:34.081Z,6.57
2018-11-13T14:33:04.353Z,8.00
2018-11-13T14:35:32.988Z,6.77
2018-11-13T14:38:01.918Z,6.97
2018-11-13T14:40:32.041Z,6.90
2018-11-13T14:43:01.041Z,6.63
2018-11-13T14:45:29.816Z,7.10
2018-11-13T14:47:58.411Z,7.10
2018-11-13T14:50:28.202Z,7.17
2018-11-13T14:52:56.936Z,6.63
2018-11-13T14:55:29.472Z,6.97
2018-11-13T14:57:58.617Z,7.27
2018-11-13T15:00:29.133Z,6.70
2018-11-13T15:02:58.358Z,7.73
2018-11-13T15:05:27.448Z,7.27
2018-11-13T15:07:57.388Z,7.63
2018-11-13T15:10:35.164Z,7.07
2018-11-13T15:13:03.686Z,7.07
2018-11-13T15:15:32.267Z,7.13
2018-11-13T15:18:00.757Z,7.70
2018-11-13T15:20:29.329Z,7.07
2018-11-13T15:22:57.955Z,6.73
2018-11-13T15:25:26.605Z,6.87
2018-11-13T15:27:55.137Z,7.50
2018-11-13T15:30:26.119Z,7.03
2018-11-13T15:33:02.419Z,7.30
2018-11-13T15:35:30.956Z,6.63
2018-11-13T15:37:59.436Z,7.07
2018-11-13T15:40:29.129Z,7.23
2018-11-13T15:42:57.675Z,6.67
2018-11-13T15:45:26.177Z,7.43
2018-11-13T15:47:55.723Z,6.93
2018-11-13T15:50:25.557Z,7.73
2018-11-13T15:52:54.157Z,7.10
2018-11-13T15:55:22.651Z,7.50
2018-11-13T15:57:51.202Z,6.13
2018-11-13T16:00:24.207Z,6.07
2018-11-13T16:02:53.024Z,6.50
2018-11-13T16:05:29.955Z,6.17
2018-11-13T16:07:59.607Z,6.87
2018-11-13T16:10:28.193Z,5.97
2018-11-13T16:12:56.857Z,5.97
2018-11-13T16:15:26.066Z,5.47
2018-11-13T16:17:55.490Z,5.43
2018-11-13T16:20:24.348Z,5.40
2018-11-13T16:22:52.884Z,5.30
2018-11-13T16:25:21.398Z,5.10
2018-11-13T16:27:49.933Z,5.13
2018-11-13T16:30:20.590Z,4.93
2018-11-13T16:32:49.784Z,5.10
2018-11-13T16:35:19.261Z,4.87
2018-11-13T16:37:48.455Z,4.87
2018-11-13T16:40:19.237Z,5.00
2018-11-13T16:42:47.708Z,4.83
2018-11-13T16:45:17.530Z,5.10
2018-11-13T16:47:46.079Z,5.37
2018-11-13T16:50:18.321Z,5.00
2018-11-13T16:52:46.847Z,5.27
2018-11-13T16:55:20.802Z,5.17
2018-11-13T16:57:50.061Z,4.83
2018-11-13T17:00:18.832Z,4.20
2018-11-13T17:02:47.376Z,4.80
2018-11-13T17:05:17.632Z,4.50
2018-11-13T17:07:46.242Z,5.60
2018-11-13T17:10:19.191Z,4.67
2018-11-13T17:12:48.188Z,4.40
2018-11-13T17:15:18.272Z,5.43
2018-11-13T17:17:47.856Z,4.17
2018-11-13T17:20:16.533Z,4.40
2018-11-13T17:22:45.675Z,4.73
2018-11-13T17:25:15.609Z,4.50
2018-11-13T17:27:45.107Z,4.20
2018-11-13T17:30:27.553Z,4.40
2018-11-13T17:32:57.025Z,4.53
2018-11-13T17:35:26.366Z,4.50
2018-11-13T17:37:55.569Z,4.03
2018-11-13T17:40:25.615Z,4.20
2018-11-13T17:42:55.456Z,4.43
2018-11-13T17:45:39.691Z,3.90
2018-11-13T17:48:09.534Z,4.03
2018-11-13T17:50:39.349Z,4.30
2018-11-13T17:53:08.630Z,3.53
2018-11-13T17:55:37.270Z,3.70
2018-11-13T17:58:08.994Z,3.40
2018-11-13T18:00:39.893Z,3.97
2018-11-13T18:03:09.752Z,3.93
2018-11-13T18:05:38.869Z,4.47
2018-11-13T18:08:08.247Z,3.70
2018-11-13T18:10:37.876Z,3.30
2018-11-13T18:13:07.021Z,3.60
2018-11-13T18:15:35.946Z,3.47
2018-11-13T18:18:05.055Z,3.77
2018-11-13T18:20:35.017Z,3.80
2018-11-13T18:23:03.553Z,3.77
2018-11-13T18:25:32.131Z,3.47
2018-11-13T18:28:01.557Z,3.77
2018-11-13T18:30:31.365Z,5.87
2018-11-13T18:33:00.731Z,4.10
2018-11-13T18:35:37.727Z,3.83
2018-11-13T18:38:08.394Z,3.60
2018-11-13T18:40:37.102Z,3.40
2018-11-13T18:43:06.377Z,3.50
2018-11-13T18:45:36.493Z,3.77
2018-11-13T18:48:05.184Z,4.00
2018-11-13T18:50:35.866Z,4.07
2018-11-13T18:53:05.312Z,4.60
2018-11-13T18:55:34.155Z,4.40
2018-11-13T18:58:02.726Z,4.40
2018-11-13T19:00:32.656Z,3.83
2018-11-13T19:03:02.511Z,3.53
2018-11-13T19:05:31.131Z,4.50
2018-11-13T19:08:00.491Z,3.47
2018-11-13T19:10:47.510Z,4.07
2018-11-13T19:13:19.727Z,3.80
2018-11-13T19:15:52.066Z,4.07
2018-11-13T19:18:21.287Z,4.20
2018-11-13T19:20:49.941Z,3.53
2018-11-13T19:23:19.087Z,3.33
2018-11-13T19:25:47.613Z,3.50
2018-11-13T19:28:16.100Z,3.30
2018-11-13T19:30:44.663Z,3.80
2018-11-13T19:33:13.300Z,3.67
2018-11-13T19:35:41.979Z,4.00
2018-11-13T19:38:10.476Z,3.67
2018-11-13T19:40:39.069Z,4.20
2018-11-13T19:43:08.776Z,4.20
2018-11-13T19:45:37.346Z,4.00
2018-11-13T19:48:05.972Z,4.37
2018-11-13T19:50:35.728Z,3.80
2018-11-13T19:53:04.331Z,4.50
2018-11-13T19:55:33.851Z,4.20
2018-11-13T19:58:02.590Z,4.37
2018-11-13T20:00:33.448Z,4.47
2018-11-13T20:03:03.217Z,4.37
2018-11-13T20:05:32.392Z,4.07
2018-11-13T20:08:01.037Z,5.23
2018-11-13T20:10:30.996Z,4.60
2018-11-13T20:13:00.868Z,4.60
2018-11-13T20:15:30.020Z,4.30
2018-11-13T20:17:58.614Z,3.93
2018-11-13T20:20:28.395Z,4.77
2018-11-13T20:22:57.578Z,4.73
2018-11-13T20:25:27.600Z,5.37
2018-11-13T20:27:56.232Z,4.30
2018-11-13T20:30:26.163Z,4.00
2018-11-13T20:32:54.719Z,4.73
2018-11-13T20:35:23.304Z,4.83
2018-11-13T20:37:52.497Z,4.77
2018-11-13T20:40:22.189Z,5.47
2018-11-13T20:42:55.946Z,4.87
2018-11-13T20:45:24.488Z,4.80
2018-11-13T20:50:33.984Z,5.30
2018-11-13T20:53:02.548Z,4.87
2018-11-13T20:55:31.143Z,4.43
2018-11-13T20:58:00.141Z,4.30
2018-11-13T21:00:28.913Z,5.17
2018-11-13T21:02:57.636Z,5.13
2018-11-13T21:05:26.319Z,4.53
2018-11-13T21:07:55.115Z,5.03
2018-11-13T21:10:27.817Z,5.30
2018-11-13T21:12:56.333Z,5.20
2018-11-13T21:15:24.855Z,5.27
2018-11-13T21:17:53.432Z,6.63
2018-11-13T21:20:21.882Z,5.17
2018-11-13T21:22:50.439Z,5.40
2018-11-13T21:25:20.789Z,5.07
2018-11-13T21:27:49.796Z,5.60
2018-11-13T21:30:19.646Z,4.77
2018-11-13T21:32:49.176Z,6.20
2018-11-13T21:35:17.868Z,4.93
2018-11-13T21:37:47.707Z,4.93
2018-11-13T21:40:18.300Z,5.60
2018-11-13T21:42:47.745Z,5.67
2018-11-13T21:45:16.898Z,5.57
2018-11-13T21:47:45.450Z,4.87
2018-11-13T21:50:15.428Z,5.00
2018-11-13T21:52:43.975Z,4.73
2018-11-13T21:55:14.479Z,4.57
2018-11-13T21:57:43.101Z,6.00
2018-11-13T22:00:19.710Z,5.57
2018-11-13T22:02:53.470Z,6.83
2018-11-13T22:05:23.031Z,5.50
2018-11-13T22:07:51.577Z,5.97
2018-11-13T22:10:20.173Z,5.50
2018-11-13T22:12:48.676Z,5.47
2018-11-13T22:15:18.437Z,5.87
2018-11-13T22:17:46.941Z,5.27
2018-11-13T22:20:16.483Z,6.30
2018-11-13T22:22:45.185Z,5.70
2018-11-13T22:25:20.011Z,5.67
2018-11-13T22:27:49.650Z,6.27
2018-11-13T22:30:19.658Z,5.60
2018-11-13T22:32:48.405Z,6.50
2018-11-13T22:35:17.377Z,5.73
2018-11-13T22:37:45.911Z,6.13
2018-11-13T22:40:17.047Z,6.73
2018-11-13T22:42:45.721Z,6.80
2018-11-13T22:45:21.124Z,6.63
2018-11-13T22:47:49.629Z,6.00
2018-11-13T22:50:19.516Z,7.57
2018-11-13T22:52:48.412Z,7.33
2018-11-13T22:55:17.387Z,5.80
2018-11-13T22:57:46.777Z,6.93
2018-11-13T23:00:20.464Z,6.57
2018-11-13T23:02:50.619Z,6.20
2018-11-13T23:05:19.221Z,6.47
2018-11-13T23:07:47.761Z,6.73
2018-11-13T23:10:16.995Z,5.77
2018-11-13T23:12:45.713Z,5.80
2018-11-13T23:15:15.559Z,5.83
2018-11-13T23:17:44.663Z,6.00
2018-11-13T23:20:14.724Z,6.43
2018-11-13T23:22:43.355Z,6.53
2018-11-13T23:25:14.042Z,5.93
2018-11-13T23:27:43.465Z,6.23
2018-11-13T23:30:14.867Z,6.57
2018-11-13T23:32:43.916Z,6.80
2018-11-13T23:35:13.235Z,6.73
2018-11-13T23:37:42.609Z,6.90
2018-11-13T23:40:18.967Z,5.70
2018-11-13T23:42:48.172Z,5.57
2018-11-13T23:45:18.338Z,6.87
2018-11-13T23:47:47.485Z,7.20
2018-11-13T23:50:16.225Z,7.43
2018-11-13T23:52:45.497Z,6.70
2018-11-13T23:55:14.634Z,6.80
2018-11-13T23:57:43.889Z,6.63
